createdAt,value
2023-05-08T00:02:06.232Z,10.99
2023-05-08T00:04:34.628Z,10.96
2023-05-08T00:07:04.135Z,10.94
2023-05-08T00:09:32.501Z,10.72
2023-05-08T00:12:00.577Z,10.46
2023-05-08T00:14:29.064Z,10.49
2023-05-08T00:16:57.432Z,10.49
2023-05-08T00:19:25.900Z,10.56
2023-05-08T00:21:53.935Z,10.71
2023-05-08T00:24:23.727Z,10.64
2023-05-08T00:26:52.071Z,10.63
2023-05-08T00:29:20.060Z,10.36
2023-05-08T00:31:48.012Z,10.29
2023-05-08T00:34:16.702Z,10.08
2023-05-08T00:36:46.064Z,10.10
2023-05-08T00:39:14.291Z,10.05
2023-05-08T00:41:44.122Z,10.01
2023-05-08T00:44:12.911Z,10.05
2023-05-08T00:46:42.661Z,9.98
2023-05-08T00:49:14.857Z,10.06
2023-05-08T00:51:44.237Z,10.03
2023-05-08T00:54:12.772Z,9.98
2023-05-08T00:56:42.140Z,10.02
2023-05-08T00:59:15.317Z,10.10
2023-05-08T01:01:45.746Z,10.02
2023-05-08T01:04:13.756Z,10.01
2023-05-08T01:06:41.833Z,9.98
2023-05-08T01:09:10.313Z,9.95
2023-05-08T01:11:47.023Z,10.01
2023-05-08T01:14:23.022Z,10.01
2023-05-08T01:17:10.848Z,9.99
2023-05-08T01:20:06.340Z,9.99
2023-05-08T01:23:01.835Z,9.98
2023-05-08T01:26:12.485Z,9.98
2023-05-08T01:29:05.342Z,10.09
2023-05-08T01:31:48.653Z,9.92
2023-05-08T01:34:25.065Z,9.92
2023-05-08T01:36:59.433Z,9.94
2023-05-08T01:39:36.205Z,9.91
2023-05-08T01:42:08.908Z,10.02
2023-05-08T01:44:43.906Z,10.03
2023-05-08T01:47:13.181Z,10.15
2023-05-08T01:49:47.878Z,10.17
2023-05-08T01:52:21.997Z,10.05
2023-05-08T01:55:00.726Z,10.13
2023-05-08T01:57:31.151Z,10.23
2023-05-08T02:00:04.353Z,10.36
2023-05-08T02:02:38.579Z,10.20
2023-05-08T02:05:12.512Z,10.29
2023-05-08T02:07:42.247Z,10.08
2023-05-08T02:10:13.066Z,10.03
2023-05-08T02:12:42.458Z,10.46
2023-05-08T02:15:15.486Z,10.54
2023-05-08T02:17:46.141Z,10.51
2023-05-08T02:20:17.857Z,10.43
2023-05-08T02:22:49.311Z,10.36
2023-05-08T02:25:20.584Z,10.56
2023-05-08T02:27:50.569Z,10.44
2023-05-08T02:30:20.592Z,10.43
2023-05-08T02:32:50.879Z,10.39
2023-05-08T02:35:22.012Z,10.49
2023-05-08T02:37:54.804Z,10.46
2023-05-08T02:40:26.247Z,10.40
2023-05-08T02:42:54.860Z,10.40
2023-05-08T02:45:26.915Z,10.41
2023-05-08T02:48:06.855Z,10.43
2023-05-08T02:50:45.263Z,10.37
2023-05-08T02:53:20.029Z,10.29
2023-05-08T02:55:51.704Z,10.12
2023-05-08T02:58:25.637Z,9.99
2023-05-08T03:00:59.362Z,10.12
2023-05-08T03:03:34.605Z,9.99
2023-05-08T03:06:08.315Z,9.85
2023-05-08T03:08:38.588Z,9.91
2023-05-08T03:11:14.969Z,9.95
2023-05-08T03:13:46.148Z,9.98
2023-05-08T03:16:19.654Z,9.92
2023-05-08T03:18:53.917Z,9.87
2023-05-08T03:21:28.220Z,9.82
2023-05-08T03:23:59.280Z,9.81
2023-05-08T03:26:27.655Z,9.75
2023-05-08T03:28:57.452Z,9.81
2023-05-08T03:31:33.506Z,9.88
2023-05-08T03:34:03.435Z,9.84
2023-05-08T03:36:33.519Z,9.81
2023-05-08T03:39:02.557Z,9.77
2023-05-08T03:41:30.878Z,9.78
2023-05-08T03:44:00.162Z,9.63
2023-05-08T03:46:28.637Z,9.69
2023-05-08T03:49:00.292Z,9.61
2023-05-08T03:51:29.480Z,9.58
2023-05-08T03:53:59.586Z,9.61
2023-05-08T03:56:29.802Z,9.60
2023-05-08T03:59:10.896Z,9.65
2023-05-08T04:01:42.121Z,9.73
2023-05-08T04:04:19.010Z,9.69
2023-05-08T04:06:54.154Z,9.65
2023-05-08T04:09:38.373Z,9.78
2023-05-08T04:12:15.557Z,9.74
2023-05-08T04:14:46.756Z,9.73
2023-05-08T04:17:19.278Z,9.69
2023-05-08T04:19:57.109Z,9.71
2023-05-08T04:22:27.877Z,9.67
2023-05-08T04:24:59.223Z,9.75
2023-05-08T04:27:28.983Z,9.57
2023-05-08T04:29:57.978Z,9.75
2023-05-08T04:32:28.702Z,9.77
2023-05-08T04:34:57.152Z,9.73
2023-05-08T04:37:26.711Z,9.88
2023-05-08T04:39:59.052Z,10.01
2023-05-08T04:42:27.656Z,10.13
2023-05-08T04:44:59.661Z,10.25
2023-05-08T04:47:27.835Z,10.39
2023-05-08T04:49:55.867Z,10.25
2023-05-08T04:52:24.794Z,10.06
2023-05-08T04:54:52.692Z,10.28
2023-05-08T04:57:22.605Z,10.25
2023-05-08T04:59:52.748Z,10.44
2023-05-08T05:02:21.206Z,10.50
2023-05-08T05:04:51.194Z,10.40
2023-05-08T05:07:19.737Z,10.41
2023-05-08T05:09:48.337Z,10.51
2023-05-08T05:12:16.498Z,10.63
2023-05-08T05:14:48.543Z,10.68
2023-05-08T05:17:16.643Z,10.60
2023-05-08T05:19:44.596Z,10.89
2023-05-08T05:22:13.448Z,10.92
2023-05-08T05:24:42.215Z,11.13
2023-05-08T05:27:10.273Z,11.40
2023-05-08T05:29:39.513Z,11.27
2023-05-08T05:32:10.252Z,11.13
2023-05-08T05:34:39.603Z,11.09
2023-05-08T05:37:07.905Z,11.22
2023-05-08T05:39:37.855Z,11.33
2023-05-08T05:42:07.595Z,11.37
2023-05-08T05:44:35.756Z,11.44
2023-05-08T05:47:05.759Z,11.48
2023-05-08T05:49:36.371Z,11.54
2023-05-08T05:52:05.211Z,11.75
2023-05-08T05:54:33.596Z,11.89
2023-05-08T05:57:04.938Z,11.79
2023-05-08T05:59:33.007Z,11.77
2023-05-08T06:02:01.140Z,11.71
2023-05-08T06:04:29.781Z,11.91
2023-05-08T06:06:59.162Z,11.95
2023-05-08T06:09:27.555Z,12.08
2023-05-08T06:11:55.981Z,12.19
2023-05-08T06:14:24.554Z,12.51
2023-05-08T06:16:52.591Z,12.82
2023-05-08T06:19:21.574Z,12.82
2023-05-08T06:21:51.819Z,13.05
2023-05-08T06:24:23.095Z,13.30
2023-05-08T06:26:51.073Z,13.36
2023-05-08T06:29:19.461Z,13.31
2023-05-08T06:31:48.274Z,14.05
2023-05-08T06:34:16.220Z,13.86
2023-05-08T06:36:44.146Z,14.27
2023-05-08T06:39:12.961Z,13.68
2023-05-08T06:41:42.233Z,14.00
2023-05-08T06:44:10.803Z,14.45
2023-05-08T06:46:39.278Z,14.76
2023-05-08T06:49:07.307Z,14.78
2023-05-08T06:51:35.599Z,14.48
2023-05-08T06:54:08.350Z,14.51
2023-05-08T06:56:38.916Z,14.33
2023-05-08T06:59:09.477Z,14.24
2023-05-08T07:01:38.490Z,13.93
2023-05-08T07:04:06.640Z,13.78
2023-05-08T07:06:36.101Z,13.87
2023-05-08T07:09:04.482Z,14.03
2023-05-08T07:11:33.074Z,14.41
2023-05-08T07:14:01.733Z,14.92
2023-05-08T07:16:31.116Z,14.64
2023-05-08T07:18:59.408Z,13.81
2023-05-08T07:21:28.359Z,14.37
2023-05-08T07:23:56.368Z,15.06
2023-05-08T07:26:24.317Z,14.99
2023-05-08T07:28:54.641Z,14.71
2023-05-08T07:31:22.910Z,14.46
2023-05-08T07:33:52.929Z,14.51
2023-05-08T07:36:21.775Z,15.03
2023-05-08T07:38:49.744Z,14.64
2023-05-08T07:41:18.157Z,14.61
2023-05-08T07:43:47.140Z,14.79
2023-05-08T07:46:18.804Z,14.57
2023-05-08T07:48:47.690Z,14.46
2023-05-08T07:51:17.048Z,14.61
2023-05-08T07:53:45.470Z,14.28
2023-05-08T07:56:13.880Z,14.38
2023-05-08T07:58:42.700Z,14.80
2023-05-08T08:01:10.643Z,14.86
2023-05-08T08:03:39.623Z,14.99
2023-05-08T08:06:07.835Z,14.99
2023-05-08T08:08:37.639Z,14.92
2023-05-08T08:11:06.353Z,15.11
2023-05-08T08:13:34.580Z,15.20
2023-05-08T08:16:04.232Z,15.42
2023-05-08T08:18:36.095Z,15.90
2023-05-08T08:21:06.766Z,16.11
2023-05-08T08:23:35.771Z,16.24
2023-05-08T08:26:05.611Z,16.62
2023-05-08T08:28:33.832Z,16.84
2023-05-08T08:31:03.602Z,17.13
2023-05-08T08:33:31.958Z,17.53
2023-05-08T08:35:59.930Z,17.48
2023-05-08T08:38:28.888Z,17.58
2023-05-08T08:40:56.839Z,17.80
2023-05-08T08:43:26.834Z,17.94
2023-05-08T08:45:55.369Z,18.21
2023-05-08T08:48:27.429Z,18.17
2023-05-08T08:51:04.289Z,18.20
2023-05-08T08:53:36.271Z,18.14
2023-05-08T08:56:09.361Z,18.00
2023-05-08T08:58:46.819Z,18.25
2023-05-08T09:01:18.354Z,18.07
2023-05-08T09:03:48.327Z,17.84
2023-05-08T09:06:19.848Z,17.77
2023-05-08T09:08:48.615Z,17.86
2023-05-08T09:11:17.092Z,17.77
2023-05-08T09:13:46.939Z,17.93
2023-05-08T09:16:15.004Z,18.04
2023-05-08T09:18:43.039Z,18.14
2023-05-08T09:21:12.057Z,18.20
2023-05-08T09:23:56.195Z,18.32
2023-05-08T09:26:33.774Z,18.45
2023-05-08T09:29:13.895Z,18.80
2023-05-08T09:31:45.016Z,18.76
2023-05-08T09:34:24.728Z,19.03
2023-05-08T09:36:53.644Z,19.39
2023-05-08T09:39:26.505Z,19.36
2023-05-08T09:42:00.190Z,19.21
2023-05-08T09:44:29.765Z,19.10
2023-05-08T09:47:12.722Z,18.53
2023-05-08T09:49:40.947Z,18.74
2023-05-08T09:52:09.544Z,19.07
2023-05-08T09:54:37.796Z,19.12
2023-05-08T09:57:14.088Z,19.55
2023-05-08T09:59:44.414Z,19.56
2023-05-08T10:02:12.892Z,19.42
2023-05-08T10:04:40.935Z,19.63
2023-05-08T10:07:09.378Z,19.71
2023-05-08T10:09:49.707Z,19.74
2023-05-08T10:12:19.240Z,19.93
2023-05-08T10:14:48.618Z,19.87
2023-05-08T10:17:22.940Z,19.84
2023-05-08T10:19:53.788Z,20.10
2023-05-08T10:22:26.425Z,20.08
2023-05-08T10:24:58.561Z,20.07
2023-05-08T10:27:36.324Z,20.36
2023-05-08T10:30:06.600Z,20.67
2023-05-08T10:32:41.963Z,20.85
2023-05-08T10:35:12.130Z,20.70
2023-05-08T10:37:42.717Z,20.43
2023-05-08T10:40:12.159Z,20.72
2023-05-08T10:42:40.211Z,20.72
2023-05-08T10:45:11.712Z,20.42
2023-05-08T10:47:55.302Z,20.63
2023-05-08T10:50:36.459Z,20.57
2023-05-08T10:53:08.323Z,20.92
2023-05-08T10:55:39.024Z,20.98
2023-05-08T10:58:12.099Z,21.34
2023-05-08T11:01:14.465Z,20.94
2023-05-08T11:03:45.538Z,21.38
2023-05-08T11:06:15.375Z,21.49
2023-05-08T11:08:54.938Z,21.77
2023-05-08T11:11:28.318Z,22.16
2023-05-08T11:14:01.336Z,21.87
2023-05-08T11:17:08.497Z,22.52
2023-05-08T11:19:39.265Z,22.83
2023-05-08T11:22:24.531Z,22.64
2023-05-08T11:24:59.185Z,22.53
2023-05-08T11:28:05.573Z,22.63
2023-05-08T11:30:40.053Z,23.45
2023-05-08T11:33:31.815Z,23.33
2023-05-08T11:36:13.086Z,22.56
2023-05-08T11:38:41.407Z,22.02
2023-05-08T11:41:10.856Z,22.60
2023-05-08T11:44:15.205Z,22.86
2023-05-08T11:46:47.733Z,23.28
2023-05-08T11:49:19.643Z,22.91
2023-05-08T11:51:55.160Z,22.66
2023-05-08T11:54:24.690Z,23.04
2023-05-08T11:56:55.192Z,23.54
2023-05-08T11:59:23.584Z,23.18
2023-05-08T12:02:06.882Z,23.93
2023-05-08T12:04:44.609Z,23.00
2023-05-08T12:07:16.018Z,23.02
2023-05-08T12:09:44.165Z,22.68
2023-05-08T12:12:12.603Z,22.53
2023-05-08T12:14:40.546Z,23.15
2023-05-08T12:17:09.031Z,24.23
2023-05-08T12:19:37.329Z,24.14
2023-05-08T12:22:05.249Z,23.80
2023-05-08T12:24:35.728Z,23.66
2023-05-08T12:27:04.670Z,23.78
2023-05-08T12:29:37.664Z,23.30
2023-05-08T12:32:06.030Z,23.97
2023-05-08T12:34:34.079Z,25.85
2023-05-08T12:37:04.523Z,26.12
2023-05-08T12:39:38.492Z,25.59
2023-05-08T12:42:07.454Z,23.49
2023-05-08T12:44:35.410Z,22.71
2023-05-08T12:47:07.120Z,22.64
2023-05-08T12:49:35.529Z,23.52
2023-05-08T12:52:08.028Z,23.56
2023-05-08T12:54:41.543Z,23.85
2023-05-08T12:57:13.855Z,25.78
2023-05-08T12:59:43.206Z,26.51
2023-05-08T13:02:16.701Z,27.92
2023-05-08T13:04:45.327Z,26.64
2023-05-08T13:07:13.474Z,27.47
2023-05-08T13:09:57.590Z,25.18
2023-05-08T13:12:25.700Z,27.06
2023-05-08T13:14:54.071Z,26.95
2023-05-08T13:17:22.118Z,25.32
2023-05-08T13:19:50.086Z,24.74
2023-05-08T13:22:19.100Z,23.39
2023-05-08T13:24:48.395Z,23.94
2023-05-08T13:27:16.777Z,23.88
2023-05-08T13:29:45.222Z,24.85
2023-05-08T13:32:13.328Z,24.02
2023-05-08T13:34:47.619Z,23.47
2023-05-08T13:37:19.807Z,23.42
2023-05-08T13:39:49.145Z,23.59
2023-05-08T13:42:17.508Z,23.46
2023-05-08T13:44:45.509Z,23.32
2023-05-08T13:47:13.481Z,24.02
2023-05-08T13:49:42.351Z,23.78
2023-05-08T13:52:10.701Z,24.00
2023-05-08T13:54:39.131Z,24.00
2023-05-08T13:57:09.086Z,24.59
2023-05-08T13:59:37.060Z,24.33
2023-05-08T14:02:05.577Z,24.15
2023-05-08T14:04:33.900Z,24.23
2023-05-08T14:07:01.941Z,24.55
2023-05-08T14:09:30.901Z,23.64
2023-05-08T14:11:58.938Z,23.71
2023-05-08T14:14:28.756Z,22.91
2023-05-08T14:16:57.788Z,22.75
2023-05-08T14:19:25.735Z,22.57
2023-05-08T14:21:54.205Z,22.06
2023-05-08T14:24:22.672Z,22.02
2023-05-08T14:26:50.678Z,21.78
2023-05-08T14:29:19.379Z,21.42
2023-05-08T14:31:48.725Z,21.32
2023-05-08T14:34:17.296Z,21.49
2023-05-08T14:36:45.708Z,21.28
2023-05-08T14:39:13.684Z,21.32
2023-05-08T14:41:48.127Z,21.56
2023-05-08T14:44:28.393Z,21.36
2023-05-08T14:46:58.138Z,20.83
2023-05-08T14:49:36.616Z,20.72
2023-05-08T14:52:07.052Z,20.50
2023-05-08T14:54:35.328Z,20.22
2023-05-08T14:57:03.971Z,19.98
2023-05-08T14:59:32.448Z,19.97
2023-05-08T15:02:02.085Z,19.95
2023-05-08T15:04:31.274Z,19.78
2023-05-08T15:06:59.653Z,19.31
2023-05-08T15:09:28.030Z,19.31
2023-05-08T15:11:56.870Z,19.45
2023-05-08T15:14:25.300Z,19.38
2023-05-08T15:16:53.676Z,19.52
2023-05-08T15:19:23.477Z,19.39
2023-05-08T15:21:51.488Z,19.38
2023-05-08T15:24:19.396Z,19.42
2023-05-08T15:26:48.230Z,19.46
2023-05-08T15:29:16.157Z,19.49
2023-05-08T15:31:44.569Z,19.45
2023-05-08T15:34:12.966Z,19.46
2023-05-08T15:36:42.276Z,19.22
2023-05-08T15:39:10.589Z,19.15
2023-05-08T15:41:39.852Z,19.11
2023-05-08T15:44:07.975Z,19.28
2023-05-08T15:46:35.938Z,19.15
2023-05-08T15:49:05.792Z,19.14
2023-05-08T15:51:33.780Z,19.29
2023-05-08T15:54:04.002Z,19.48
2023-05-08T15:56:32.687Z,19.55
2023-05-08T15:59:00.621Z,19.55
2023-05-08T16:01:29.628Z,19.38
2023-05-08T16:03:57.714Z,19.41
2023-05-08T16:06:26.250Z,19.26
2023-05-08T16:08:54.652Z,19.12
2023-05-08T16:11:24.038Z,18.91
2023-05-08T16:13:53.487Z,18.96
2023-05-08T16:16:22.529Z,18.87
2023-05-08T16:18:50.457Z,18.70
2023-05-08T16:21:18.838Z,18.56
2023-05-08T16:23:47.445Z,18.52
2023-05-08T16:26:16.578Z,18.27
2023-05-08T16:28:45.869Z,18.27
2023-05-08T16:31:14.708Z,18.11
2023-05-08T16:33:43.471Z,18.15
2023-05-08T16:36:11.738Z,18.20
2023-05-08T16:38:39.712Z,18.35
2023-05-08T16:41:09.998Z,18.31
2023-05-08T16:43:38.091Z,18.39
2023-05-08T16:46:08.532Z,18.53
2023-05-08T16:48:37.003Z,18.63
2023-05-08T16:51:05.705Z,18.69
2023-05-08T16:53:33.715Z,18.73
2023-05-08T16:56:01.661Z,18.84
2023-05-08T16:58:29.627Z,18.83
2023-05-08T17:00:57.588Z,18.86
2023-05-08T17:03:27.532Z,18.93
2023-05-08T17:05:55.571Z,18.97
2023-05-08T17:08:23.547Z,19.06
2023-05-08T17:10:54.216Z,19.18
2023-05-08T17:13:22.193Z,19.38
2023-05-08T17:15:50.612Z,19.32
2023-05-08T17:18:19.067Z,19.10
2023-05-08T17:20:48.339Z,19.18
2023-05-08T17:23:16.556Z,19.24
2023-05-08T17:25:44.522Z,19.48
2023-05-08T17:28:12.694Z,19.62
2023-05-08T17:30:40.859Z,19.55
2023-05-08T17:33:09.177Z,19.29
2023-05-08T17:35:37.174Z,18.84
2023-05-08T17:38:06.661Z,18.84
2023-05-08T17:40:34.630Z,18.80
2023-05-08T17:43:06.467Z,18.83
2023-05-08T17:45:34.745Z,18.86
2023-05-08T17:48:03.125Z,18.91
2023-05-08T17:50:32.321Z,18.81
2023-05-08T17:53:00.289Z,18.74
2023-05-08T17:55:31.704Z,18.55
2023-05-08T17:58:00.233Z,18.56
2023-05-08T18:00:28.123Z,18.27
2023-05-08T18:02:58.063Z,18.28
2023-05-08T18:05:29.427Z,18.21
2023-05-08T18:07:57.391Z,18.39
2023-05-08T18:10:25.816Z,18.37
2023-05-08T18:12:55.111Z,18.44
2023-05-08T18:15:23.273Z,18.35
2023-05-08T18:17:53.545Z,18.29
2023-05-08T18:20:22.088Z,18.15
2023-05-08T18:22:51.057Z,18.11
2023-05-08T18:25:19.801Z,18.12
2023-05-08T18:27:50.035Z,18.03
2023-05-08T18:30:20.469Z,17.96
2023-05-08T18:32:48.458Z,17.87
2023-05-08T18:35:18.377Z,17.90
2023-05-08T18:37:46.360Z,17.80
2023-05-08T18:40:15.765Z,17.43
2023-05-08T18:42:44.277Z,17.39
2023-05-08T18:45:13.765Z,17.18
2023-05-08T18:47:43.130Z,17.13
2023-05-08T18:50:12.424Z,16.90
2023-05-08T18:52:40.809Z,16.80
2023-05-08T18:55:10.775Z,16.55
2023-05-08T18:57:39.232Z,16.48
2023-05-08T19:00:08.584Z,16.52
2023-05-08T19:02:37.151Z,16.47
2023-05-08T19:05:08.143Z,16.31
2023-05-08T19:07:36.318Z,16.22
2023-05-08T19:10:05.855Z,16.07
2023-05-08T19:12:33.813Z,15.96
2023-05-08T19:15:02.716Z,15.96
2023-05-08T19:17:30.696Z,15.90
2023-05-08T19:19:59.661Z,15.76
2023-05-08T19:22:28.912Z,15.75
2023-05-08T19:24:57.289Z,15.63
2023-05-08T19:27:25.698Z,15.51
2023-05-08T19:29:54.585Z,15.37
2023-05-08T19:32:22.917Z,15.31
2023-05-08T19:34:50.850Z,15.31
2023-05-08T19:37:19.309Z,15.38
2023-05-08T19:39:48.620Z,15.30
2023-05-08T19:42:16.603Z,15.32
2023-05-08T19:44:45.052Z,15.11
2023-05-08T19:47:13.700Z,15.24
2023-05-08T19:49:41.768Z,15.28
2023-05-08T19:52:09.961Z,15.26
2023-05-08T19:54:38.032Z,15.14
2023-05-08T19:57:08.338Z,15.10
2023-05-08T19:59:36.358Z,15.17
2023-05-08T20:02:05.323Z,15.08
2023-05-08T20:04:42.168Z,15.11
2023-05-08T20:07:20.543Z,15.17
2023-05-08T20:09:48.555Z,15.13
2023-05-08T20:12:17.892Z,15.11
2023-05-08T20:14:46.141Z,15.16
2023-05-08T20:17:14.911Z,14.95
2023-05-08T20:19:42.910Z,14.96
2023-05-08T20:22:12.505Z,14.97
2023-05-08T20:24:40.930Z,14.88
2023-05-08T20:27:08.910Z,14.93
2023-05-08T20:29:39.255Z,14.86
2023-05-08T20:32:08.753Z,14.86
2023-05-08T20:34:36.794Z,14.73
2023-05-08T20:37:06.123Z,14.79
2023-05-08T20:39:34.181Z,14.76
2023-05-08T20:42:03.156Z,14.67
2023-05-08T20:44:31.904Z,14.71
2023-05-08T20:47:01.982Z,14.71
2023-05-08T20:49:30.056Z,14.71
2023-05-08T20:51:58.175Z,14.64
2023-05-08T20:54:26.197Z,14.65
2023-05-08T20:56:54.590Z,14.88
2023-05-08T20:59:23.559Z,14.97
2023-05-08T21:01:51.530Z,15.28
2023-05-08T21:04:22.159Z,15.48
2023-05-08T21:06:52.000Z,15.81
2023-05-08T21:09:20.888Z,16.13
2023-05-08T21:11:49.029Z,16.32
2023-05-08T21:14:17.105Z,16.62
2023-05-08T21:16:45.351Z,16.72
2023-05-08T21:19:17.168Z,16.75
2023-05-08T21:21:47.847Z,16.83
2023-05-08T21:24:16.508Z,16.84
2023-05-08T21:26:44.691Z,16.79
2023-05-08T21:29:13.607Z,16.77
2023-05-08T21:31:43.172Z,16.97
2023-05-08T21:34:12.390Z,16.91
2023-05-08T21:36:40.811Z,16.96
2023-05-08T21:39:10.180Z,16.99
2023-05-08T21:41:39.171Z,16.93
2023-05-08T21:44:07.137Z,16.99
2023-05-08T21:46:35.768Z,17.00
2023-05-08T21:49:04.741Z,16.91
2023-05-08T21:51:32.948Z,16.93
2023-05-08T21:54:01.461Z,16.96
2023-05-08T21:56:31.591Z,17.00
2023-05-08T21:58:59.538Z,16.96
2023-05-08T22:01:28.475Z,16.99
2023-05-08T22:03:56.616Z,16.93
2023-05-08T22:06:25.647Z,16.99
2023-05-08T22:08:53.791Z,16.93
2023-05-08T22:11:22.473Z,16.87
2023-05-08T22:13:51.886Z,16.86
2023-05-08T22:16:20.710Z,16.80
2023-05-08T22:18:48.913Z,16.84
2023-05-08T22:21:16.892Z,16.79
2023-05-08T22:23:45.859Z,16.73
2023-05-08T22:26:14.021Z,16.68
2023-05-08T22:28:42.963Z,16.66
2023-05-08T22:31:12.711Z,16.71
2023-05-08T22:33:42.032Z,16.71
2023-05-08T22:36:10.790Z,16.65
2023-05-08T22:38:40.758Z,16.59
2023-05-08T22:41:09.978Z,16.55
2023-05-08T22:43:38.106Z,16.56
2023-05-08T22:46:07.258Z,16.55
2023-05-08T22:48:37.594Z,16.51
2023-05-08T22:51:06.662Z,16.44
2023-05-08T22:53:34.754Z,16.44
2023-05-08T22:56:03.912Z,16.55
2023-05-08T22:58:31.966Z,16.44
2023-05-08T23:01:01.147Z,16.40
2023-05-08T23:03:29.674Z,16.34
2023-05-08T23:05:59.121Z,16.40
2023-05-08T23:08:27.866Z,16.41
2023-05-08T23:10:56.400Z,16.38
2023-05-08T23:13:24.621Z,16.38
2023-05-08T23:15:53.237Z,16.34
2023-05-08T23:18:21.736Z,16.40
2023-05-08T23:20:49.707Z,16.41
2023-05-08T23:23:20.105Z,16.37
2023-05-08T23:25:48.024Z,16.41
2023-05-08T23:28:16.892Z,16.31
2023-05-08T23:30:44.826Z,16.38
2023-05-08T23:45:52.272Z,16.32
2023-05-08T23:48:20.097Z,16.37
2023-05-08T23:50:48.137Z,16.38
2023-05-08T23:53:17.135Z,16.35
2023-05-08T23:55:44.906Z,16.29
2023-05-08T23:58:13.182Z,16.24
